Terminal Aerodrome Forecast
Issued by NWS

Home | Current Version | Previous Version | Text Only | Print | Product List | Glossary On
Versions: 1 2 3 4 5 6 7 8 9 10 11 12 13 14
000
FTUS43 KIND 172300
TAFHUF
TAF
KHUF 172325Z 1800/1824 23009KT P6SM BKN250
     FM180500 21003KT P6SM BKN100 BKN250
     FM181300 29007KT P6SM SCT040 BKN100
     FM181700 32005KT P6SM SCT040 SCT100=

USA.gov is the U.S. government's official web portal to all federal, state and local government web resources and services.